Time;durP1;ratioP1;P1;durP2;ratioP2;P2;SDS_P1;SDS_P2;PMS_P1;PMS_P2;Temp;Humidity;BMP_temperature;BMP_pressure;BME280_temperature;BME280_humidity;BME280_pressure;Samples;Min_cycle;Max_cycle;Signal;HPM_P1;HPM_P2
2024/01/15 00:01:10;;;;;;;8.40;4.57;;;;;;;-1.79;92.95;94055.94;5090242;28;20241;-78
2024/01/15 00:03:36;;;;;;;8.20;4.43;;;;;;;-1.96;92.49;94061.50;5090493;28;20559;-75
2024/01/15 00:06:04;;;;;;;11.23;4.93;;;;;;;-1.89;92.49;94056.72;5082721;28;20252;-76
2024/01/15 00:08:31;;;;;;;0.28;0.28;;;;;;;-1.91;91.26;94063.34;5089565;28;20303;-75
2024/01/15 00:10:59;;;;;;;0.43;0.43;;;;;;;-2.32;92.95;94062.47;5087805;28;20585;-76
2024/01/15 00:13:25;;;;;;;24.77;9.57;;;;;;;-2.02;93.42;94051.13;5092615;28;20194;-77
2024/01/15 00:15:52;;;;;;;15.32;7.95;;;;;;;-2.19;93.17;94051.41;5087791;28;20202;-75
2024/01/15 00:18:19;;;;;;;13.32;7.05;;;;;;;-1.86;92.94;94044.78;5092415;28;20252;-74
2024/01/15 00:20:46;;;;;;;11.30;5.00;;;;;;;-1.81;91.80;94042.94;5087237;28;20202;-75
2024/01/15 00:23:13;;;;;;;11.75;4.65;;;;;;;-1.89;92.53;94055.91;5087571;28;20204;-76
2024/01/15 00:25:40;;;;;;;9.10;4.85;;;;;;;-1.90;91.68;94054.31;5085515;28;20564;-75
2024/01/15 00:28:08;;;;;;;11.13;5.43;;;;;;;-1.94;91.47;94048.78;5088426;28;20217;-76
2024/01/15 00:30:35;;;;;;;6.65;3.80;;;;;;;-1.95;93.32;94052.47;5067327;28;20675;-75
2024/01/15 00:33:02;;;;;;;0.40;0.40;;;;;;;-2.09;92.16;94061.22;5088364;28;20648;-75
2024/01/15 00:35:28;;;;;;;1.80;1.70;;;;;;;-1.93;93.58;94054.88;5085804;28;20207;-75
2024/01/15 00:37:55;;;;;;;0.30;0.30;;;;;;;-1.70;92.88;94049.03;5087956;28;20203;-75
2024/01/15 00:40:22;;;;;;;18.92;9.25;;;;;;;-1.70;92.01;94051.69;5084873;28;20199;-74
2024/01/15 00:42:49;;;;;;;17.92;6.47;;;;;;;-1.71;91.44;94039.47;5087283;28;20237;-74
2024/01/15 00:45:17;;;;;;;10.45;5.20;;;;;;;-1.65;91.52;94051.72;5087000;28;20566;-77
2024/01/15 00:47:44;;;;;;;8.90;3.78;;;;;;;-1.58;91.64;94046.91;5085814;28;20195;-75
2024/01/15 00:50:11;;;;;;;6.93;4.97;;;;;;;-1.76;91.68;94044.78;5084498;28;20227;-76
2024/01/15 00:52:37;;;;;;;5.22;3.25;;;;;;;-1.68;91.13;94041.63;5087659;28;20202;-76
2024/01/15 00:55:05;;;;;;;6.28;2.55;;;;;;;-1.55;92.01;94042.94;5084765;28;20213;-75
2024/01/15 00:57:32;;;;;;;8.63;3.72;;;;;;;-1.62;89.84;94045.84;5084277;28;20618;-75
2024/01/15 00:59:59;;;;;;;14.98;3.47;;;;;;;-1.74;89.83;94033.91;5076902;28;20228;-75
2024/01/15 01:02:28;;;;;;;9.18;3.03;;;;;;;-1.79;91.14;94045.34;5064678;28;20204;-76
2024/01/15 01:04:54;;;;;;;8.00;3.53;;;;;;;-1.95;91.37;94044.53;5067781;28;20556;-74
2024/01/15 01:07:21;;;;;;;8.18;2.85;;;;;;;-1.85;90.91;94043.72;5064958;28;20202;-76
2024/01/15 01:09:49;;;;;;;5.75;2.30;;;;;;;-2.53;90.56;94051.03;5066244;28;20589;-75
2024/01/15 01:12:16;;;;;;;8.75;3.17;;;;;;;-2.15;92.04;94045.28;5067605;28;20268;-75
2024/01/15 01:14:43;;;;;;;0.40;0.40;;;;;;;-2.09;92.30;94045.28;5064611;28;20229;-76
2024/01/15 01:17:10;;;;;;;0.20;0.20;;;;;;;-1.87;92.70;94043.19;5065283;28;20281;-76
2024/01/15 01:19:38;;;;;;;0.50;0.50;;;;;;;-1.87;91.86;94038.69;5066298;28;20195;-76
2024/01/15 01:22:05;;;;;;;1.05;1.05;;;;;;;-2.03;91.34;94046.88;5065515;28;20207;-77
2024/01/15 01:24:32;;;;;;;1.27;1.27;;;;;;;-1.84;90.51;94037.34;5063015;28;20210;-75
2024/01/15 01:26:59;;;;;;;4.53;2.15;;;;;;;-1.88;91.79;94031.78;5064568;28;20207;-77
2024/01/15 01:29:26;;;;;;;5.55;2.70;;;;;;;-1.87;90.97;94016.66;5063475;28;20343;-76
2024/01/15 01:31:53;;;;;;;8.10;2.72;;;;;;;-1.82;91.72;94016.66;5064622;28;20200;-76
2024/01/15 01:34:19;;;;;;;6.28;2.85;;;;;;;-1.72;92.45;94019.31;5063865;28;20215;-76
2024/01/15 01:36:48;;;;;;;10.98;3.70;;;;;;;-1.79;91.53;94016.13;5066611;28;20227;-76
2024/01/15 01:39:14;;;;;;;0.43;0.43;;;;;;;-1.77;90.75;94016.66;5066951;28;20256;-76
2024/01/15 01:41:41;;;;;;;0.50;0.50;;;;;;;-1.77;91.23;94011.34;5063449;28;20211;-77
2024/01/15 01:44:08;;;;;;;0.20;0.20;;;;;;;-1.70;91.34;94011.88;5066196;28;20264;-74
2024/01/15 01:46:42;;;;;;;0.30;0.30;;;;;;;-1.87;90.81;94011.34;5048163;28;20214;-75
2024/01/15 01:49:10;;;;;;;0.20;0.20;;;;;;;-1.92;91.69;94019.31;5064295;28;20226;-75
2024/01/15 01:51:39;;;;;;;7.90;1.95;;;;;;;-2.03;92.13;94021.16;5065206;28;20203;-76
2024/01/15 01:54:11;;;;;;;0.20;0.20;;;;;;;-1.94;90.98;94021.44;5064310;28;20206;-75
2024/01/15 01:56:38;;;;;;;0.20;0.20;;;;;;;-2.11;91.27;94019.03;5047286;28;20202;-76
2024/01/15 01:59:05;;;;;;;0.30;0.30;;;;;;;-2.03;91.56;94012.38;5068103;28;20202;-78
2024/01/15 02:01:33;;;;;;;1.17;0.65;;;;;;;-2.29;92.55;94009.72;5083906;28;20209;-75
2024/01/15 02:04:01;;;;;;;0.20;0.20;;;;;;;-2.23;93.70;93998.06;5086846;28;20642;-76
2024/01/15 02:06:28;;;;;;;2.72;0.90;;;;;;;-2.05;93.82;94003.94;5083465;28;20207;-76
2024/01/15 02:08:55;;;;;;;0.60;0.60;;;;;;;-1.99;94.53;94000.19;5085801;28;20201;-75
2024/01/15 02:11:23;;;;;;;0.68;0.68;;;;;;;-1.69;94.78;94008.16;5083766;28;20206;-75
2024/01/15 02:13:50;;;;;;;0.35;0.35;;;;;;;-1.70;93.22;93998.59;5083543;28;20667;-76
2024/01/15 02:16:17;;;;;;;0.65;0.65;;;;;;;-1.72;92.09;93992.75;5083194;28;20207;-76
2024/01/15 02:18:45;;;;;;;0.20;0.20;;;;;;;-1.86;90.78;93981.09;5087108;28;20210;-75
2024/01/15 02:21:12;;;;;;;0.47;0.35;;;;;;;-1.85;92.82;93980.03;5085728;28;20256;-75
2024/01/15 02:23:40;;;;;;;0.20;0.20;;;;;;;-1.79;93.32;93971.03;5083576;28;20705;-76
2024/01/15 02:26:08;;;;;;;0.20;0.20;;;;;;;-1.65;91.56;93963.31;5085384;28;20206;-76
2024/01/15 02:28:35;;;;;;;0.20;0.20;;;;;;;-1.82;91.92;93945.81;5086679;28;20556;-76
2024/01/15 02:31:02;;;;;;;3.70;1.55;;;;;;;-2.18;92.17;93925.63;5084837;28;20219;-75
2024/01/15 02:33:29;;;;;;;4.00;1.85;;;;;;;-2.15;93.78;93928.56;5085084;28;20644;-75
2024/01/15 02:35:55;;;;;;;9.30;3.47;;;;;;;-2.07;93.65;93937.06;5086309;28;20248;-74
2024/01/15 02:38:22;;;;;;;8.95;3.67;;;;;;;-1.94;93.83;93942.63;5085511;28;20646;-76
2024/01/15 02:40:50;;;;;;;7.85;4.53;;;;;;;-1.75;94.21;93934.91;5083191;28;20198;-75
2024/01/15 02:43:19;;;;;;;6.15;3.05;;;;;;;-1.79;92.72;93928.56;5083450;28;20206;-75
2024/01/15 02:45:45;;;;;;;6.00;3.15;;;;;;;-1.70;93.12;93932.25;5085713;28;20202;-75
2024/01/15 02:48:12;;;;;;;5.53;2.88;;;;;;;-1.59;93.57;93928.50;5082347;28;20209;-75
2024/01/15 02:50:39;;;;;;;7.15;3.25;;;;;;;-2.13;91.95;93928.31;5085160;28;20226;-77
2024/01/15 02:53:06;;;;;;;4.38;2.35;;;;;;;-1.98;92.49;93930.16;5087020;28;20202;-75
2024/01/15 02:55:33;;;;;;;4.72;2.25;;;;;;;-1.92;90.76;93934.41;5086913;28;20202;-76
2024/01/15 02:58:02;;;;;;;3.80;2.40;;;;;;;-1.86;91.07;93923.50;5081751;28;20198;-75
2024/01/15 03:00:28;;;;;;;4.95;3.13;;;;;;;-1.68;91.49;93934.63;5085632;28;20230;-76
2024/01/15 03:02:56;;;;;;;0.45;0.45;;;;;;;-1.47;91.57;93931.66;5079992;28;20206;-76
2024/01/15 03:05:22;;;;;;;0.20;0.20;;;;;;;-1.30;90.68;93935.84;5089443;28;20601;-75
2024/01/15 03:07:49;;;;;;;0.30;0.30;;;;;;;-1.21;90.06;93934.22;5081727;28;20552;-75
2024/01/15 03:10:16;;;;;;;0.15;0.15;;;;;;;-1.16;88.08;93920.94;5080686;28;20694;-76
2024/01/15 03:12:43;;;;;;;0.28;0.28;;;;;;;-1.25;88.03;93930.53;5085960;28;20205;-76
2024/01/15 03:15:12;;;;;;;0.20;0.20;;;;;;;-1.57;90.83;93915.75;5086608;28;20199;-77
2024/01/15 03:17:38;;;;;;;0.20;0.20;;;;;;;-1.64;88.76;93915.22;5088201;28;20206;-75
2024/01/15 03:20:07;;;;;;;0.20;0.20;;;;;;;-1.88;91.74;93922.19;5087915;28;20198;-75
2024/01/15 03:22:34;;;;;;;0.20;0.20;;;;;;;-1.68;90.93;93914.19;5091584;28;20312;-75
2024/01/15 03:25:01;;;;;;;4.57;2.20;;;;;;;-1.80;90.82;93913.69;5089105;28;20206;-76
2024/01/15 03:27:27;;;;;;;7.00;2.47;;;;;;;-2.04;91.45;93920.59;5086633;28;20300;-77
2024/01/15 03:29:54;;;;;;;5.75;2.55;;;;;;;-2.05;91.15;93908.41;5084777;28;20222;-77
2024/01/15 03:32:22;;;;;;;7.95;2.70;;;;;;;-2.06;91.24;93907.63;5088267;28;20574;-76
2024/01/15 03:34:49;;;;;;;6.72;2.88;;;;;;;-2.28;90.98;93910.53;5087924;28;20206;-76
2024/01/15 03:37:16;;;;;;;6.40;2.33;;;;;;;-2.07;93.53;93910.53;5087382;28;20213;-75
2024/01/15 03:39:43;;;;;;;3.83;2.50;;;;;;;-2.52;92.75;93898.88;5088466;28;20195;-76
2024/01/15 03:42:10;;;;;;;6.07;3.55;;;;;;;-2.47;95.57;93906.03;5087630;28;20206;-76
2024/01/15 03:44:36;;;;;;;3.53;2.67;;;;;;;-2.47;96.19;93906.03;5088781;28;20207;-75
2024/01/15 03:47:04;;;;;;;7.38;3.72;;;;;;;-2.16;94.27;93897.78;5086306;28;21127;-76
2024/01/15 03:49:32;;;;;;;6.82;3.53;;;;;;;-1.90;93.70;93919.00;5090990;28;20321;-76
2024/01/15 03:51:59;;;;;;;7.15;2.97;;;;;;;-1.93;93.85;93901.78;5084090;28;20203;-78
2024/01/15 03:54:26;;;;;;;6.15;3.67;;;;;;;-1.78;93.95;93908.91;5088733;28;20546;-77
2024/01/15 03:56:53;;;;;;;7.32;3.60;;;;;;;-1.80;94.40;93917.13;5069632;28;20199;-78
2024/01/15 03:59:20;;;;;;;6.45;3.05;;;;;;;-1.53;93.93;93905.41;5082385;28;20240;-79
2024/01/15 04:01:50;;;;;;;4.13;3.22;;;;;;;-1.35;93.05;93909.31;5064733;28;20230;-77
2024/01/15 04:04:18;;;;;;;6.45;3.58;;;;;;;-1.33;92.43;93901.88;5067326;28;20286;-78
2024/01/15 04:06:46;;;;;;;11.77;4.32;;;;;;;-1.14;91.58;93886.91;5068350;28;20191;-75
2024/01/15 04:09:14;;;;;;;10.52;3.25;;;;;;;-1.08;91.53;93877.84;5065844;28;20219;-75
2024/01/15 04:11:41;;;;;;;0.20;0.20;;;;;;;-1.04;89.93;93881.53;5070560;28;20202;-78
2024/01/15 04:14:08;;;;;;;0.20;0.20;;;;;;;-1.06;90.31;93889.00;5070664;28;20640;-77
2024/01/15 04:16:35;;;;;;;0.85;0.85;;;;;;;-0.26;100.00;93886.09;5066816;28;20199;-79
2024/01/15 04:19:02;;;;;;;0.20;0.20;;;;;;;4.62;100.00;93864.88;5067693;28;20635;-80
2024/01/15 04:21:29;;;;;;;0.38;0.38;;;;;;;5.05;100.00;93855.41;5066946;28;20276;-79
2024/01/15 04:23:59;;;;;;;0.50;0.50;;;;;;;2.29;100.00;93858.56;5065788;28;20203;-78
2024/01/15 04:26:26;;;;;;;3.70;1.15;;;;;;;0.42;95.90;93876.13;5071051;28;20730;-81
2024/01/15 04:28:53;;;;;;;1.30;1.25;;;;;;;-0.56;97.52;93879.16;5068042;28;20203;-76
2024/01/15 04:31:23;;;;;;;4.43;1.95;;;;;;;-0.80;100.00;93885.13;5066947;28;20218;-78
2024/01/15 04:33:50;;;;;;;0.22;0.22;;;;;;;-0.86;100.00;93888.91;5071384;28;20210;-79
2024/01/15 04:36:17;;;;;;;0.38;0.38;;;;;;;-0.79;100.00;93894.69;5070311;28;20227;-78
2024/01/15 04:38:45;;;;;;;3.33;1.42;;;;;;;-0.90;100.00;93889.72;5067551;28;20203;-78
2024/01/15 04:41:14;;;;;;;0.20;0.20;;;;;;;-1.15;100.00;93894.09;5066795;28;20639;-78
2024/01/15 04:43:41;;;;;;;0.35;0.35;;;;;;;-1.37;99.31;93887.56;5073654;28;20202;-78
2024/01/15 04:46:08;;;;;;;1.33;1.23;;;;;;;-1.24;100.00;93887.75;5073413;28;20207;-78
2024/01/15 04:48:36;;;;;;;0.60;0.60;;;;;;;-1.45;97.72;93892.34;5073517;28;20595;-78
2024/01/15 04:51:05;;;;;;;1.77;1.67;;;;;;;-1.53;94.90;93873.53;5073546;28;20325;-78
2024/01/15 04:53:32;;;;;;;1.75;0.60;;;;;;;-1.63;96.09;93887.63;5072460;28;20260;-78
2024/01/15 04:55:59;;;;;;;0.20;0.20;;;;;;;-1.80;96.10;93863.25;5066220;28;20199;-78
2024/01/15 04:58:27;;;;;;;0.50;0.50;;;;;;;-1.78;96.12;93871.75;5067598;28;20203;-78
2024/01/15 05:00:55;;;;;;;9.38;4.47;;;;;;;-1.81;95.88;93866.97;5062939;28;20314;-78
2024/01/15 05:03:22;;;;;;;7.47;5.60;;;;;;;-1.78;96.07;93861.13;5067587;28;20267;-78
2024/01/15 05:05:49;;;;;;;7.10;4.22;;;;;;;-1.83;97.62;93871.75;5057172;28;20200;-80
2024/01/15 05:08:24;;;;;;;12.93;6.50;;;;;;;-1.66;97.29;93864.28;5066195;28;21446;-80
2024/01/15 05:10:51;;;;;;;11.57;5.07;;;;;;;-1.71;97.53;93861.63;5072916;28;20234;-78
2024/01/15 05:13:18;;;;;;;18.20;5.05;;;;;;;-1.77;97.24;93846.78;5071643;28;20569;-79
2024/01/15 05:15:46;;;;;;;18.40;4.65;;;;;;;-1.85;96.63;93852.66;5071348;28;20221;-77
2024/01/15 05:18:14;;;;;;;45.63;17.67;;;;;;;-2.23;96.60;93838.13;5072488;28;20214;-80
2024/01/15 05:20:42;;;;;;;20.20;7.88;;;;;;;-2.57;98.27;93846.63;5072061;28;20210;-79
2024/01/15 05:23:09;;;;;;;13.60;6.90;;;;;;;-2.67;98.31;93859.09;5073622;28;20218;-78
2024/01/15 05:25:35;;;;;;;17.25;5.65;;;;;;;-2.94;98.49;93846.88;5072831;28;20599;-79
2024/01/15 05:28:02;;;;;;;10.57;4.30;;;;;;;-2.94;100.00;93873.38;5073298;28;20889;-79
2024/01/15 05:30:29;;;;;;;6.53;3.65;;;;;;;-2.81;99.95;93853.53;5072237;28;20237;-78
2024/01/15 05:33:00;;;;;;;12.57;4.78;;;;;;;-3.19;99.50;93868.03;5072667;28;20304;-78
2024/01/15 05:35:27;;;;;;;5.65;3.15;;;;;;;-2.96;99.95;93862.25;5073193;28;20203;-79
2024/01/15 05:37:54;;;;;;;9.48;4.10;;;;;;;-2.62;99.72;93856.47;5072919;28;20222;-79
2024/01/15 05:40:21;;;;;;;13.93;3.38;;;;;;;-2.49;98.84;93855.94;5071956;28;20321;-78
2024/01/15 05:42:48;;;;;;;7.85;4.15;;;;;;;-2.35;97.50;93849.03;5072627;28;20218;-80
2024/01/15 05:45:14;;;;;;;8.70;3.92;;;;;;;-2.21;97.26;93863.34;5072775;28;20210;-79
2024/01/15 05:47:41;;;;;;;12.65;5.32;;;;;;;-2.15;97.10;93835.72;5067962;28;20211;-78
2024/01/15 05:50:10;;;;;;;8.30;5.18;;;;;;;-2.19;97.64;93834.66;5067241;28;20237;-79
2024/01/15 05:52:37;;;;;;;13.38;5.10;;;;;;;-2.34;98.04;93832.06;5072789;28;20214;-78
2024/01/15 05:55:06;;;;;;;17.88;6.65;;;;;;;-2.12;98.33;93825.66;5058327;28;20211;-79
2024/01/15 05:57:33;;;;;;;5.57;2.13;;;;;;;-1.91;97.69;93824.53;5045497;28;20996;-79
2024/01/15 06:00:02;;;;;;;3.15;1.60;;;;;;;-1.78;96.74;93829.28;5074377;28;20230;-79
2024/01/15 06:02:29;;;;;;;2.47;2.35;;;;;;;-2.01;96.20;93830.66;5081340;28;20211;-78
2024/01/15 06:04:56;;;;;;;1.98;1.77;;;;;;;-1.74;96.03;93845.44;5092123;28;20330;-78
2024/01/15 06:07:24;;;;;;;0.25;0.25;;;;;;;-1.63;96.01;93847.00;5092352;28;20207;-78
2024/01/15 06:09:51;;;;;;;0.20;0.20;;;;;;;-1.48;94.25;93838.97;5086579;28;20569;-80
2024/01/15 06:12:18;;;;;;;0.30;0.30;;;;;;;-1.38;93.55;93841.59;5088806;28;20809;-80
2024/01/15 06:14:45;;;;;;;1.25;1.20;;;;;;;-1.89;93.52;93840.97;5083936;28;20218;-79
2024/01/15 06:17:12;;;;;;;0.52;0.52;;;;;;;-2.04;94.73;93831.19;5089213;28;20631;-79
2024/01/15 06:19:39;;;;;;;0.75;0.75;;;;;;;-1.89;95.95;93833.00;5067587;28;20677;-78
2024/01/15 06:22:06;;;;;;;3.55;2.25;;;;;;;-1.41;95.83;93833.38;5083461;28;20304;-80
2024/01/15 06:24:34;;;;;;;1.55;1.45;;;;;;;-0.37;94.78;93830.31;5088344;28;20194;-79
2024/01/15 06:27:01;;;;;;;0.98;0.98;;;;;;;-0.08;89.98;93838.31;5087171;28;20505;-80
2024/01/15 06:29:29;;;;;;;0.55;0.55;;;;;;;-0.80;88.11;93808.03;5068789;28;20312;-79
2024/01/15 06:31:56;;;;;;;0.73;0.70;;;;;;;-1.01;91.69;93819.88;5090325;28;20628;-80
2024/01/15 06:34:23;;;;;;;0.90;0.90;;;;;;;-1.25;90.75;93826.94;5092726;28;20206;-80
2024/01/15 06:36:49;;;;;;;1.60;1.50;;;;;;;-1.49;92.50;93830.22;5092816;28;20278;-79
2024/01/15 06:39:18;;;;;;;0.85;0.80;;;;;;;-1.08;93.67;93832.66;5090149;28;20288;-80
2024/01/15 06:41:46;;;;;;;0.30;0.30;;;;;;;-1.49;93.42;93835.53;5082001;28;20237;-79
2024/01/15 06:44:14;;;;;;;0.50;0.50;;;;;;;-0.85;93.58;93832.00;5083705;28;20198;-80
2024/01/15 06:46:43;;;;;;;0.95;0.95;;;;;;;-0.36;91.97;93834.56;5080475;28;20623;-80
2024/01/15 06:49:10;;;;;;;0.30;0.30;;;;;;;-0.33;89.59;93838.53;5082635;28;20218;-80
2024/01/15 06:51:38;;;;;;;8.25;2.33;;;;;;;0.13;88.56;93835.44;5080731;28;20262;-81
2024/01/15 06:54:05;;;;;;;3.70;1.08;;;;;;;0.22;88.36;93841.75;5083346;28;20202;-80
2024/01/15 06:56:33;;;;;;;4.13;2.15;;;;;;;0.36;87.90;93832.00;5086699;28;20281;-80
2024/01/15 06:59:01;;;;;;;0.60;0.60;;;;;;;0.34;87.95;93842.13;5091861;28;20206;-78
2024/01/15 07:04:22;;;;;;;1.33;1.27;;;;;;;-0.15;89.67;93819.22;5075763;28;20214;-80
2024/01/15 07:06:49;;;;;;;0.40;0.40;;;;;;;0.26;88.78;93846.22;5092437;28;20222;-81
2024/01/15 07:09:16;;;;;;;0.73;0.73;;;;;;;-0.05;88.04;93829.75;5081003;28;20236;-80
2024/01/15 07:11:46;;;;;;;2.25;2.15;;;;;;;0.26;87.68;93851.56;5077217;28;20234;-80
2024/01/15 07:14:18;;;;;;;0.20;0.20;;;;;;;0.38;87.56;93845.84;5082108;28;20207;-79
2024/01/15 07:16:46;;;;;;;5.13;1.98;;;;;;;0.24;88.44;93863.56;5078194;28;20217;-78
2024/01/15 07:19:13;;;;;;;4.90;0.65;;;;;;;0.49;87.49;93844.63;5082434;28;20206;-78
2024/01/15 07:21:43;;;;;;;1.67;1.17;;;;;;;0.35;87.67;93839.19;5092296;28;20203;-81
2024/01/15 07:24:25;;;;;;;0.85;0.85;;;;;;;0.55;87.94;93845.34;5084932;28;20199;-80
2024/01/15 07:26:52;;;;;;;0.60;0.60;;;;;;;0.84;86.35;93823.94;5076679;28;20627;-83
2024/01/15 07:29:25;;;;;;;0.60;0.60;;;;;;;0.84;85.47;93821.28;5086340;28;20210;-83
2024/01/15 07:31:52;;;;;;;1.75;1.65;;;;;;;0.26;85.42;93835.56;5092868;28;20234;-84
2024/01/15 07:34:21;;;;;;;0.98;0.93;;;;;;;0.38;87.75;93831.72;5092067;28;20234;-82
2024/01/15 07:36:51;;;;;;;1.45;1.38;;;;;;;0.71;88.24;93820.13;5091631;28;20296;-84
2024/01/15 07:39:18;;;;;;;0.30;0.30;;;;;;;0.06;87.05;93814.47;5092211;28;20198;-85
2024/01/15 07:41:45;;;;;;;3.30;2.90;;;;;;;0.45;87.98;93832.94;5092942;28;20562;-85
2024/01/15 07:44:14;;;;;;;1.15;1.15;;;;;;;-0.13;87.49;93825.03;5092280;28;20211;-85
2024/01/15 07:46:45;;;;;;;0.85;0.85;;;;;;;0.50;90.11;93837.44;5093395;28;20225;-84
2024/01/15 07:49:12;;;;;;;0.30;0.30;;;;;;;0.88;88.80;93841.75;5094837;28;20228;-88
2024/01/15 07:51:43;;;;;;;1.20;1.20;;;;;;;0.31;87.78;93843.50;5081749;28;20226;-81
2024/01/15 07:54:11;;;;;;;2.25;2.15;;;;;;;0.43;88.74;93840.44;5084428;28;20641;-81
2024/01/15 07:56:56;;;;;;;0.75;0.75;;;;;;;0.44;87.60;93842.00;5091222;28;20214;-81
2024/01/15 07:59:27;;;;;;;0.40;0.40;;;;;;;0.55;89.54;93843.47;5093499;28;20679;-82
2024/01/15 08:01:56;;;;;;;1.25;1.25;;;;;;;1.03;87.61;93830.09;5089782;28;21360;-82
2024/01/15 08:04:23;;;;;;;0.90;0.90;;;;;;;0.91;87.36;93805.75;5094830;28;20213;-82
2024/01/15 08:06:50;;;;;;;1.48;1.42;;;;;;;0.43;86.51;93789.03;5091518;28;20208;-82
2024/01/15 08:09:17;;;;;;;0.65;0.65;;;;;;;0.89;85.54;93821.22;5094991;28;20206;-82
2024/01/15 08:11:47;;;;;;;1.80;1.67;;;;;;;0.44;83.69;93802.06;5093836;28;20222;-81
2024/01/15 08:14:14;;;;;;;5.57;5.18;;;;;;;0.48;86.33;93810.28;5094809;28;20202;-82
2024/01/15 08:16:41;;;;;;;0.60;0.60;;;;;;;1.23;85.12;93821.78;5084362;28;20210;-85
2024/01/15 08:19:09;;;;;;;0.20;0.20;;;;;;;1.05;82.25;93825.28;5102715;28;20259;-87
2024/01/15 08:21:36;;;;;;;1.00;1.00;;;;;;;1.22;81.31;93841.56;5088951;28;20618;-83
2024/01/15 08:27:26;;;;;;;0.30;0.30;;;;;;;1.89;80.21;93823.47;5284014;22;20933;-78
2024/01/15 08:29:53;;;;;;;0.30;0.30;;;;;;;2.33;79.13;93822.91;5058738;28;20206;-79
2024/01/15 08:32:20;;;;;;;0.20;0.20;;;;;;;2.26;77.56;93821.72;5073289;28;20226;-79
2024/01/15 08:37:23;;;;;;;0.25;0.25;;;;;;;2.21;76.41;93811.13;5169041;23;20230;-81
2024/01/15 08:39:50;;;;;;;1.15;1.08;;;;;;;2.65;78.40;93797.97;5073467;28;20215;-80
2024/01/15 08:42:20;;;;;;;1.15;1.05;;;;;;;2.62;78.59;93795.91;5077158;28;20203;-83
2024/01/15 08:44:47;;;;;;;0.20;0.20;;;;;;;2.87;78.99;93785.78;5096407;28;20212;-82
2024/01/15 08:50:12;;;;;;;4.05;1.73;;;;;;;3.43;76.50;93764.69;5071809;28;20226;-83
2024/01/15 08:52:40;;;;;;;2.05;1.13;;;;;;;3.12;76.90;93750.47;5072855;28;20313;-83
2024/01/15 08:55:08;;;;;;;2.08;0.57;;;;;;;3.50;76.16;93791.84;5067299;28;20298;-79
2024/01/15 08:57:35;;;;;;;1.35;1.27;;;;;;;3.52;76.49;93783.50;5074571;28;20217;-83
2024/01/15 09:00:08;;;;;;;2.40;1.88;;;;;;;3.36;75.98;93753.63;5074161;28;20203;-79
2024/01/15 09:02:36;;;;;;;1.60;1.50;;;;;;;3.96;75.59;93781.91;5074986;28;20207;-82
2024/01/15 09:05:05;;;;;;;0.65;0.65;;;;;;;3.77;74.27;93769.50;5073494;28;20225;-84
2024/01/15 09:07:37;;;;;;;8.57;2.35;;;;;;;3.56;75.18;93730.91;5073981;28;20253;-80
2024/01/15 09:10:09;;;;;;;2.38;2.17;;;;;;;3.65;76.39;93728.31;5051417;28;20648;-84
2024/01/15 09:12:36;;;;;;;0.30;0.30;;;;;;;3.43;73.90;93743.28;5070009;28;20648;-81
2024/01/15 09:15:06;;;;;;;0.30;0.30;;;;;;;3.06;76.72;93717.66;5052523;28;20203;-85
2024/01/15 09:17:35;;;;;;;2.20;1.50;;;;;;;3.03;75.17;93718.25;5059390;28;20211;-85
2024/01/15 09:20:05;;;;;;;1.25;0.52;;;;;;;3.54;75.25;93709.84;5071879;28;20691;-87
2024/01/15 09:22:32;;;;;;;4.25;3.05;;;;;;;3.01;75.19;93695.59;5072146;28;20195;-85
2024/01/15 09:25:02;;;;;;;0.20;0.20;;;;;;;3.13;76.22;93701.22;5074504;28;20203;-83
2024/01/15 09:27:32;;;;;;;2.05;1.95;;;;;;;2.66;75.86;93681.94;5074346;28;20572;-83
2024/01/15 09:30:00;;;;;;;0.93;0.93;;;;;;;2.92;75.40;93698.19;5074905;28;20644;-84
2024/01/15 09:32:29;;;;;;;1.65;0.85;;;;;;;2.27;77.08;93714.56;5075716;28;20241;-83
2024/01/15 09:34:58;;;;;;;1.00;0.98;;;;;;;2.71;80.88;93679.16;5075154;28;20214;-82
2024/01/15 09:37:27;;;;;;;0.95;0.90;;;;;;;3.07;76.44;93654.25;5068130;28;20200;-82
2024/01/15 09:39:55;;;;;;;3.72;0.73;;;;;;;2.71;74.89;93692.53;5073961;28;20271;-81
2024/01/15 09:42:24;;;;;;;7.78;3.33;;;;;;;3.01;74.17;93704.41;5077808;28;20203;-82
2024/01/15 09:44:53;;;;;;;0.93;0.90;;;;;;;3.04;73.20;93694.97;5084217;28;20203;-85
2024/01/15 09:47:21;;;;;;;1.67;1.55;;;;;;;2.99;75.61;93689.78;5068424;28;20220;-82
2024/01/15 09:49:48;;;;;;;3.28;2.08;;;;;;;2.85;72.33;93658.53;5050765;28;20223;-82
2024/01/15 09:52:19;;;;;;;1.50;1.40;;;;;;;2.87;73.38;93660.09;5054635;28;20238;-83
2024/01/15 09:54:47;;;;;;;2.05;1.92;;;;;;;2.37;73.93;93638.75;5056229;28;20199;-83
2024/01/15 09:57:14;;;;;;;0.93;0.93;;;;;;;2.53;76.23;93655.25;5049260;28;20205;-84
2024/01/15 09:59:44;;;;;;;2.60;1.67;;;;;;;2.04;75.20;93638.91;5035518;28;20207;-85
2024/01/15 10:02:18;;;;;;;2.65;0.52;;;;;;;1.93;77.03;93650.88;5052836;28;20287;-82
2024/01/15 10:04:45;;;;;;;0.88;0.88;;;;;;;1.81;78.92;93618.53;5051827;28;20200;-84
2024/01/15 10:07:16;;;;;;;0.30;0.30;;;;;;;1.95;77.92;93653.25;5050465;28;20204;-81
2024/01/15 10:09:43;;;;;;;0.75;0.75;;;;;;;1.48;79.89;93641.09;5049498;28;20227;-83
2024/01/15 10:12:11;;;;;;;1.02;1.00;;;;;;;1.72;79.65;93647.03;5057875;28;20223;-80
2024/01/15 10:14:44;;;;;;;0.22;0.22;;;;;;;1.74;79.57;93634.19;5050531;28;20281;-84
2024/01/15 10:17:17;;;;;;;1.08;0.98;;;;;;;2.03;78.84;93605.28;5048689;28;20281;-84
2024/01/15 10:19:48;;;;;;;0.47;0.47;;;;;;;2.20;77.67;93630.56;5048573;28;20287;-83
2024/01/15 10:22:16;;;;;;;1.58;0.90;;;;;;;2.23;77.69;93612.06;5052326;28;20769;-83
2024/01/15 10:24:42;;;;;;;1.08;1.02;;;;;;;2.73;77.47;93614.69;5052244;28;20575;-83
2024/01/15 10:27:10;;;;;;;2.03;0.85;;;;;;;2.59;75.73;93612.06;5049986;28;20207;-84
2024/01/15 10:29:38;;;;;;;3.05;1.85;;;;;;;2.46;76.07;93591.53;5052173;28;20390;-81
2024/01/15 10:32:09;;;;;;;1.27;1.20;;;;;;;3.02;76.82;93593.63;5051589;28;20231;-82
2024/01/15 10:34:41;;;;;;;6.65;2.22;;;;;;;3.31;74.53;93577.13;5050981;28;20212;-81
2024/01/15 10:37:12;;;;;;;8.32;3.05;;;;;;;4.21;73.66;93596.31;5048548;28;20640;-83
2024/01/15 10:39:42;;;;;;;6.85;3.38;;;;;;;3.61;71.24;93593.47;5044534;28;20211;-83
2024/01/15 10:42:09;;;;;;;0.95;0.95;;;;;;;4.29;70.09;93590.97;5051531;28;20601;-82
2024/01/15 10:44:38;;;;;;;6.70;2.63;;;;;;;4.25;66.61;93560.53;5051602;28;20682;-83
2024/01/15 10:47:05;;;;;;;1.20;1.20;;;;;;;3.91;69.52;93581.91;5049708;28;20700;-82
2024/01/15 10:49:32;;;;;;;2.08;1.95;;;;;;;4.06;69.12;93600.25;5049851;28;20242;-82
2024/01/15 10:52:02;;;;;;;6.38;2.33;;;;;;;3.96;69.29;93579.09;5051347;28;20318;-83
2024/01/15 10:54:29;;;;;;;1.40;1.33;;;;;;;3.66;67.40;93563.88;5050562;28;20203;-83
2024/01/15 10:56:57;;;;;;;0.40;0.40;;;;;;;4.16;68.19;93567.78;5049545;28;20204;-82
2024/01/15 10:59:24;;;;;;;0.20;0.20;;;;;;;4.56;65.29;93552.34;5042230;28;20203;-81
2024/01/15 11:01:53;;;;;;;0.85;0.85;;;;;;;4.18;68.52;93554.84;5049341;28;20207;-83
2024/01/15 11:04:21;;;;;;;1.52;0.73;;;;;;;4.92;67.59;93567.31;5050333;28;20223;-81
2024/01/15 11:06:51;;;;;;;1.25;0.80;;;;;;;4.32;64.55;93559.28;5048560;28;20207;-81
2024/01/15 11:09:19;;;;;;;4.13;1.27;;;;;;;4.37;65.68;93540.38;5043513;28;20218;-82
2024/01/15 11:11:47;;;;;;;0.65;0.65;;;;;;;4.45;65.58;93534.22;5050726;28;20599;-83
2024/01/15 11:14:35;;;;;;;1.08;0.98;;;;;;;4.80;65.01;93533.06;5051529;28;20208;-80
2024/01/15 11:17:02;;;;;;;1.00;1.00;;;;;;;4.80;64.45;93527.69;5036456;28;20193;-83
2024/01/15 11:19:37;;;;;;;1.23;1.13;;;;;;;5.10;66.60;93531.28;5040257;28;20207;-83
2024/01/15 11:22:05;;;;;;;2.40;1.27;;;;;;;5.98;65.09;93536.00;5052393;28;20605;-84
2024/01/15 11:24:39;;;;;;;1.15;1.15;;;;;;;5.57;62.73;93518.63;5051664;28;20214;-82
2024/01/15 11:27:09;;;;;;;1.98;1.80;;;;;;;5.09;63.96;93518.16;5048579;28;20200;-84
2024/01/15 11:29:38;;;;;;;1.10;1.10;;;;;;;5.83;67.12;93512.34;5041145;28;20557;-82
2024/01/15 11:32:08;;;;;;;0.47;0.47;;;;;;;6.30;61.74;93524.53;5051219;28;20653;-83
2024/01/15 11:34:53;;;;;;;1.45;0.60;;;;;;;6.62;61.45;93514.16;5053622;28;20210;-82
2024/01/15 11:37:20;;;;;;;1.75;1.65;;;;;;;7.18;59.26;93526.16;5049813;28;20211;-82
2024/01/15 11:39:48;;;;;;;0.85;0.85;;;;;;;7.32;58.15;93497.00;5052564;28;20216;-81
2024/01/15 11:42:18;;;;;;;9.77;2.08;;;;;;;6.71;60.17;93490.66;5054406;28;20569;-82
2024/01/15 11:44:48;;;;;;;7.00;0.98;;;;;;;7.45;58.79;93508.56;5053704;28;20598;-82
2024/01/15 11:47:16;;;;;;;0.95;0.95;;;;;;;6.92;59.18;93487.94;5052478;28;20698;-83
2024/01/15 11:50:00;;;;;;;10.68;4.25;;;;;;;6.48;61.67;93509.06;5054348;28;20243;-79
2024/01/15 11:52:32;;;;;;;7.50;4.18;;;;;;;6.89;60.89;93508.22;5054217;28;20255;-82